Terminal Aerodrome Forecast
Issued by NWS

Home | Current Version | Previous Version | Text Only | Print | Product List | Glossary On
Versions: 1 2 3 4 5 6 7 8 9 10 11 12 13 14 15 16 17 18
000
FTUS46 KPQR 260532
TAFONP
TAF
KONP 260532Z 2606/2706 24012KT P6SM -SHRA SCT030 BKN045
     FM261200 24010KT P6SM -SHRA SCT028 BKN045
     FM262300 26007KT P6SM SCT050 BKN080=

USA.gov is the U.S. government's official web portal to all federal, state and local government web resources and services.